sensor_id;sensor_type;location;lat;lon;timestamp;temperature;humidity
24744;DHT22;12844;52.110;5.548;2023-06-22T00:02:06;27.20;53.90
24744;DHT22;12844;52.110;5.548;2023-06-22T00:04:31;27.20;53.90
24744;DHT22;12844;52.110;5.548;2023-06-22T00:06:57;27.20;53.90
24744;DHT22;12844;52.110;5.548;2023-06-22T00:09:22;27.20;53.90
24744;DHT22;12844;52.110;5.548;2023-06-22T00:11:48;27.20;53.90
24744;DHT22;12844;52.110;5.548;2023-06-22T00:14:13;27.20;53.90
24744;DHT22;12844;52.110;5.548;2023-06-22T00:16:39;27.20;54.00
24744;DHT22;12844;52.110;5.548;2023-06-22T00:19:04;27.20;54.00
24744;DHT22;12844;52.110;5.548;2023-06-22T00:21:30;27.20;53.90
24744;DHT22;12844;52.110;5.548;2023-06-22T00:23:56;27.20;53.90
24744;DHT22;12844;52.110;5.548;2023-06-22T00:26:22;27.20;53.90
24744;DHT22;12844;52.110;5.548;2023-06-22T00:28:48;27.20;54.00
24744;DHT22;12844;52.110;5.548;2023-06-22T00:31:14;27.20;53.90
24744;DHT22;12844;52.110;5.548;2023-06-22T00:33:39;27.20;53.90
24744;DHT22;12844;52.110;5.548;2023-06-22T00:36:05;27.20;54.00
24744;DHT22;12844;52.110;5.548;2023-06-22T00:38:33;27.10;54.00
24744;DHT22;12844;52.110;5.548;2023-06-22T00:40:58;27.10;53.90
24744;DHT22;12844;52.110;5.548;2023-06-22T00:43:24;27.10;54.00
24744;DHT22;12844;52.110;5.548;2023-06-22T00:45:49;27.10;54.00
24744;DHT22;12844;52.110;5.548;2023-06-22T00:48:15;27.10;54.00
24744;DHT22;12844;52.110;5.548;2023-06-22T00:50:41;27.10;54.00
24744;DHT22;12844;52.110;5.548;2023-06-22T00:53:08;27.10;54.00
24744;DHT22;12844;52.110;5.548;2023-06-22T00:55:41;27.10;53.90
24744;DHT22;12844;52.110;5.548;2023-06-22T00:58:09;27.10;53.90
24744;DHT22;12844;52.110;5.548;2023-06-22T01:00:36;27.10;53.90
24744;DHT22;12844;52.110;5.548;2023-06-22T01:03:02;27.10;53.90
24744;DHT22;12844;52.110;5.548;2023-06-22T01:05:27;27.10;53.90
24744;DHT22;12844;52.110;5.548;2023-06-22T01:08:12;27.10;53.90
24744;DHT22;12844;52.110;5.548;2023-06-22T01:11:09;27.10;53.90
24744;DHT22;12844;52.110;5.548;2023-06-22T01:16:33;27.10;53.90
24744;DHT22;12844;52.110;5.548;2023-06-22T01:19:17;27.10;54.00
24744;DHT22;12844;52.110;5.548;2023-06-22T01:21:46;27.10;53.90
24744;DHT22;12844;52.110;5.548;2023-06-22T01:27:17;27.00;53.80
24744;DHT22;12844;52.110;5.548;2023-06-22T01:29:40;27.00;53.80
24744;DHT22;12844;52.110;5.548;2023-06-22T01:32:09;27.00;53.90
24744;DHT22;12844;52.110;5.548;2023-06-22T01:34:36;27.00;53.90
24744;DHT22;12844;52.110;5.548;2023-06-22T01:37:05;27.00;54.00
24744;DHT22;12844;52.110;5.548;2023-06-22T01:39:32;27.00;53.90
24744;DHT22;12844;52.110;5.548;2023-06-22T01:41:58;27.00;53.90
24744;DHT22;12844;52.110;5.548;2023-06-22T01:44:24;27.00;53.80
24744;DHT22;12844;52.110;5.548;2023-06-22T01:46:51;27.00;53.70
24744;DHT22;12844;52.110;5.548;2023-06-22T01:49:17;27.00;53.70
24744;DHT22;12844;52.110;5.548;2023-06-22T01:51:43;27.00;53.70
24744;DHT22;12844;52.110;5.548;2023-06-22T01:54:09;27.00;53.70
24744;DHT22;12844;52.110;5.548;2023-06-22T01:56:35;27.00;53.60
24744;DHT22;12844;52.110;5.548;2023-06-22T02:01:38;27.00;53.70
24744;DHT22;12844;52.110;5.548;2023-06-22T02:04:11;27.00;53.70
24744;DHT22;12844;52.110;5.548;2023-06-22T02:06:39;27.00;53.70
24744;DHT22;12844;52.110;5.548;2023-06-22T02:09:14;26.90;53.70
24744;DHT22;12844;52.110;5.548;2023-06-22T02:11:43;26.90;53.60
24744;DHT22;12844;52.110;5.548;2023-06-22T02:14:10;27.00;53.70
24744;DHT22;12844;52.110;5.548;2023-06-22T02:16:37;27.00;53.60
24744;DHT22;12844;52.110;5.548;2023-06-22T02:19:03;27.00;53.60
24744;DHT22;12844;52.110;5.548;2023-06-22T02:21:30;26.90;53.60
24744;DHT22;12844;52.110;5.548;2023-06-22T02:23:56;26.90;53.50
24744;DHT22;12844;52.110;5.548;2023-06-22T02:26:22;26.90;53.50
24744;DHT22;12844;52.110;5.548;2023-06-22T02:28:48;26.90;53.50
24744;DHT22;12844;52.110;5.548;2023-06-22T02:31:14;26.90;53.50
24744;DHT22;12844;52.110;5.548;2023-06-22T02:33:40;26.90;53.50
24744;DHT22;12844;52.110;5.548;2023-06-22T02:36:05;26.90;53.50
24744;DHT22;12844;52.110;5.548;2023-06-22T02:38:34;26.90;53.50
24744;DHT22;12844;52.110;5.548;2023-06-22T02:41:01;26.90;53.50
24744;DHT22;12844;52.110;5.548;2023-06-22T02:43:27;26.90;53.50
24744;DHT22;12844;52.110;5.548;2023-06-22T02:45:53;26.90;53.50
24744;DHT22;12844;52.110;5.548;2023-06-22T02:48:18;26.90;53.40
24744;DHT22;12844;52.110;5.548;2023-06-22T02:50:44;26.90;53.40
24744;DHT22;12844;52.110;5.548;2023-06-22T02:53:09;26.90;53.40
24744;DHT22;12844;52.110;5.548;2023-06-22T02:55:35;26.90;53.50
24744;DHT22;12844;52.110;5.548;2023-06-22T02:58:00;26.90;53.50
24744;DHT22;12844;52.110;5.548;2023-06-22T03:00:30;26.90;53.40
24744;DHT22;12844;52.110;5.548;2023-06-22T03:02:57;26.90;53.40
24744;DHT22;12844;52.110;5.548;2023-06-22T03:05:22;26.90;53.40
24744;DHT22;12844;52.110;5.548;2023-06-22T03:07:48;26.90;53.40
24744;DHT22;12844;52.110;5.548;2023-06-22T03:10:15;26.90;53.40
24744;DHT22;12844;52.110;5.548;2023-06-22T03:12:41;26.80;53.30
24744;DHT22;12844;52.110;5.548;2023-06-22T03:15:08;26.90;53.70
24744;DHT22;12844;52.110;5.548;2023-06-22T03:17:35;26.90;53.40
24744;DHT22;12844;52.110;5.548;2023-06-22T03:20:04;26.80;53.30
24744;DHT22;12844;52.110;5.548;2023-06-22T03:22:35;26.90;53.40
24744;DHT22;12844;52.110;5.548;2023-06-22T03:25:01;26.80;53.30
24744;DHT22;12844;52.110;5.548;2023-06-22T03:27:26;26.80;53.30
24744;DHT22;12844;52.110;5.548;2023-06-22T03:29:52;26.80;53.20
24744;DHT22;12844;52.110;5.548;2023-06-22T03:32:17;26.80;53.20
24744;DHT22;12844;52.110;5.548;2023-06-22T03:34:43;26.80;53.20
24744;DHT22;12844;52.110;5.548;2023-06-22T03:37:13;26.80;53.20
24744;DHT22;12844;52.110;5.548;2023-06-22T03:39:38;26.80;53.20
24744;DHT22;12844;52.110;5.548;2023-06-22T03:42:04;26.80;53.20
24744;DHT22;12844;52.110;5.548;2023-06-22T03:44:30;26.80;53.20
24744;DHT22;12844;52.110;5.548;2023-06-22T03:46:56;26.80;53.20
24744;DHT22;12844;52.110;5.548;2023-06-22T03:49:21;26.80;53.20
24744;DHT22;12844;52.110;5.548;2023-06-22T03:51:47;26.80;53.20
24744;DHT22;12844;52.110;5.548;2023-06-22T03:54:12;26.80;53.10
24744;DHT22;12844;52.110;5.548;2023-06-22T03:56:38;26.80;53.10
24744;DHT22;12844;52.110;5.548;2023-06-22T03:59:03;26.70;53.10
24744;DHT22;12844;52.110;5.548;2023-06-22T04:01:29;26.80;53.10
24744;DHT22;12844;52.110;5.548;2023-06-22T04:03:54;26.70;53.00
24744;DHT22;12844;52.110;5.548;2023-06-22T04:06:20;26.70;53.00
24744;DHT22;12844;52.110;5.548;2023-06-22T04:08:46;26.70;53.00
24744;DHT22;12844;52.110;5.548;2023-06-22T04:11:17;26.70;53.00
24744;DHT22;12844;52.110;5.548;2023-06-22T04:13:43;26.70;53.00
24744;DHT22;12844;52.110;5.548;2023-06-22T04:16:08;26.70;53.00
24744;DHT22;12844;52.110;5.548;2023-06-22T04:18:34;26.70;53.00
24744;DHT22;12844;52.110;5.548;2023-06-22T04:20:59;26.70;53.00
24744;DHT22;12844;52.110;5.548;2023-06-22T04:23:25;26.70;52.90
24744;DHT22;12844;52.110;5.548;2023-06-22T04:25:50;26.70;52.90
24744;DHT22;12844;52.110;5.548;2023-06-22T04:28:17;26.70;52.90
24744;DHT22;12844;52.110;5.548;2023-06-22T04:30:42;26.70;52.90
24744;DHT22;12844;52.110;5.548;2023-06-22T04:33:15;26.70;52.90
24744;DHT22;12844;52.110;5.548;2023-06-22T04:35:41;26.70;52.90
24744;DHT22;12844;52.110;5.548;2023-06-22T04:38:07;26.70;52.90
24744;DHT22;12844;52.110;5.548;2023-06-22T04:40:32;26.70;52.80
24744;DHT22;12844;52.110;5.548;2023-06-22T04:42:58;26.70;52.80
24744;DHT22;12844;52.110;5.548;2023-06-22T04:45:28;26.70;52.90
24744;DHT22;12844;52.110;5.548;2023-06-22T04:47:53;26.70;52.90
24744;DHT22;12844;52.110;5.548;2023-06-22T04:50:19;26.70;52.90
24744;DHT22;12844;52.110;5.548;2023-06-22T04:52:46;26.70;52.90
24744;DHT22;12844;52.110;5.548;2023-06-22T04:55:12;26.60;52.80
24744;DHT22;12844;52.110;5.548;2023-06-22T04:57:37;26.70;52.90
24744;DHT22;12844;52.110;5.548;2023-06-22T05:00:05;26.70;52.80
24744;DHT22;12844;52.110;5.548;2023-06-22T05:02:40;26.60;52.70
24744;DHT22;12844;52.110;5.548;2023-06-22T05:05:06;26.70;52.70
24744;DHT22;12844;52.110;5.548;2023-06-22T05:07:33;26.70;52.70
24744;DHT22;12844;52.110;5.548;2023-06-22T05:10:00;26.70;52.70
24744;DHT22;12844;52.110;5.548;2023-06-22T05:12:27;26.70;52.70
24744;DHT22;12844;52.110;5.548;2023-06-22T05:14:52;26.70;52.70
24744;DHT22;12844;52.110;5.548;2023-06-22T05:17:18;26.60;52.60
24744;DHT22;12844;52.110;5.548;2023-06-22T05:19:44;26.70;52.70
24744;DHT22;12844;52.110;5.548;2023-06-22T05:22:16;26.70;52.70
24744;DHT22;12844;52.110;5.548;2023-06-22T05:24:42;26.70;52.70
24744;DHT22;12844;52.110;5.548;2023-06-22T05:27:08;26.70;52.70
24744;DHT22;12844;52.110;5.548;2023-06-22T05:29:34;26.70;52.70
24744;DHT22;12844;52.110;5.548;2023-06-22T05:32:00;26.70;52.70
24744;DHT22;12844;52.110;5.548;2023-06-22T05:34:26;26.70;52.70
24744;DHT22;12844;52.110;5.548;2023-06-22T05:36:51;26.70;52.70
24744;DHT22;12844;52.110;5.548;2023-06-22T05:39:17;26.70;52.70
24744;DHT22;12844;52.110;5.548;2023-06-22T05:41:44;26.70;52.80
24744;DHT22;12844;52.110;5.548;2023-06-22T05:44:09;26.70;52.70
24744;DHT22;12844;52.110;5.548;2023-06-22T05:46:35;26.70;52.80
24744;DHT22;12844;52.110;5.548;2023-06-22T05:49:00;26.60;52.70
24744;DHT22;12844;52.110;5.548;2023-06-22T05:51:26;26.70;52.80
24744;DHT22;12844;52.110;5.548;2023-06-22T05:53:51;26.60;52.70
24744;DHT22;12844;52.110;5.548;2023-06-22T05:56:17;26.60;52.70
24744;DHT22;12844;52.110;5.548;2023-06-22T05:58:42;26.60;52.80
24744;DHT22;12844;52.110;5.548;2023-06-22T06:01:08;26.60;52.70
24744;DHT22;12844;52.110;5.548;2023-06-22T06:03:33;26.60;52.70
24744;DHT22;12844;52.110;5.548;2023-06-22T06:05:59;26.60;52.70
24744;DHT22;12844;52.110;5.548;2023-06-22T06:08:27;26.70;52.80
24744;DHT22;12844;52.110;5.548;2023-06-22T06:10:53;26.60;52.70
24744;DHT22;12844;52.110;5.548;2023-06-22T06:13:20;26.60;52.80
24744;DHT22;12844;52.110;5.548;2023-06-22T06:15:45;26.60;52.70
24744;DHT22;12844;52.110;5.548;2023-06-22T06:18:11;26.60;52.70
24744;DHT22;12844;52.110;5.548;2023-06-22T06:20:37;26.70;52.70
24744;DHT22;12844;52.110;5.548;2023-06-22T06:23:02;26.70;52.70
24744;DHT22;12844;52.110;5.548;2023-06-22T06:25:28;26.70;52.70
24744;DHT22;12844;52.110;5.548;2023-06-22T06:27:53;26.70;52.80
24744;DHT22;12844;52.110;5.548;2023-06-22T06:30:20;26.60;52.80
24744;DHT22;12844;52.110;5.548;2023-06-22T06:32:46;26.70;52.90
24744;DHT22;12844;52.110;5.548;2023-06-22T06:35:14;26.70;52.80
24744;DHT22;12844;52.110;5.548;2023-06-22T06:37:41;26.70;52.80
24744;DHT22;12844;52.110;5.548;2023-06-22T06:40:08;26.70;52.80
24744;DHT22;12844;52.110;5.548;2023-06-22T06:42:36;26.70;52.80
24744;DHT22;12844;52.110;5.548;2023-06-22T06:45:04;26.70;52.80
24744;DHT22;12844;52.110;5.548;2023-06-22T06:47:30;26.70;52.80
24744;DHT22;12844;52.110;5.548;2023-06-22T06:49:55;26.70;52.90
24744;DHT22;12844;52.110;5.548;2023-06-22T06:52:21;26.70;52.90
24744;DHT22;12844;52.110;5.548;2023-06-22T06:54:46;26.70;52.90
24744;DHT22;12844;52.110;5.548;2023-06-22T06:57:12;26.70;52.90
24744;DHT22;12844;52.110;5.548;2023-06-22T06:59:38;26.70;52.90
24744;DHT22;12844;52.110;5.548;2023-06-22T07:02:04;26.70;53.00
24744;DHT22;12844;52.110;5.548;2023-06-22T07:04:30;26.70;52.90
24744;DHT22;12844;52.110;5.548;2023-06-22T07:06:56;26.70;52.70
24744;DHT22;12844;52.110;5.548;2023-06-22T07:09:21;26.70;52.70
24744;DHT22;12844;52.110;5.548;2023-06-22T07:11:47;26.70;52.80
24744;DHT22;12844;52.110;5.548;2023-06-22T07:14:12;26.70;52.70
24744;DHT22;12844;52.110;5.548;2023-06-22T07:16:38;26.80;52.70
24744;DHT22;12844;52.110;5.548;2023-06-22T07:19:03;26.80;52.50
24744;DHT22;12844;52.110;5.548;2023-06-22T07:21:29;26.90;52.50
24744;DHT22;12844;52.110;5.548;2023-06-22T07:23:54;26.90;52.50
24744;DHT22;12844;52.110;5.548;2023-06-22T07:26:20;27.00;52.40
24744;DHT22;12844;52.110;5.548;2023-06-22T07:28:45;27.00;52.30
24744;DHT22;12844;52.110;5.548;2023-06-22T07:31:11;27.00;52.10
24744;DHT22;12844;52.110;5.548;2023-06-22T07:33:36;27.00;52.10
24744;DHT22;12844;52.110;5.548;2023-06-22T07:36:02;27.00;52.00
24744;DHT22;12844;52.110;5.548;2023-06-22T07:38:33;27.10;52.10
24744;DHT22;12844;52.110;5.548;2023-06-22T07:40:58;27.10;52.10
24744;DHT22;12844;52.110;5.548;2023-06-22T07:43:24;27.10;52.00
24744;DHT22;12844;52.110;5.548;2023-06-22T07:45:49;27.10;52.00
24744;DHT22;12844;52.110;5.548;2023-06-22T07:48:21;27.10;51.90
24744;DHT22;12844;52.110;5.548;2023-06-22T07:50:47;27.20;52.70
24744;DHT22;12844;52.110;5.548;2023-06-22T07:53:13;27.20;52.20
24744;DHT22;12844;52.110;5.548;2023-06-22T07:55:38;27.10;52.20
24744;DHT22;12844;52.110;5.548;2023-06-22T07:58:04;27.10;52.10
24744;DHT22;12844;52.110;5.548;2023-06-22T08:00:29;27.10;52.20
24744;DHT22;12844;52.110;5.548;2023-06-22T08:02:55;27.10;52.30
24744;DHT22;12844;52.110;5.548;2023-06-22T08:05:21;27.00;52.30
24744;DHT22;12844;52.110;5.548;2023-06-22T08:07:47;27.00;52.40
24744;DHT22;12844;52.110;5.548;2023-06-22T08:10:13;27.00;52.50
24744;DHT22;12844;52.110;5.548;2023-06-22T08:12:39;27.00;52.50
24744;DHT22;12844;52.110;5.548;2023-06-22T08:15:06;26.90;52.50
24744;DHT22;12844;52.110;5.548;2023-06-22T08:17:32;26.90;52.60
24744;DHT22;12844;52.110;5.548;2023-06-22T08:19:58;26.90;52.60
24744;DHT22;12844;52.110;5.548;2023-06-22T08:22:24;26.90;52.60
24744;DHT22;12844;52.110;5.548;2023-06-22T08:24:49;26.90;52.70
24744;DHT22;12844;52.110;5.548;2023-06-22T08:27:15;26.90;52.70
24744;DHT22;12844;52.110;5.548;2023-06-22T08:29:42;26.90;52.70
24744;DHT22;12844;52.110;5.548;2023-06-22T08:32:12;26.90;52.70
24744;DHT22;12844;52.110;5.548;2023-06-22T08:34:37;26.90;52.70
24744;DHT22;12844;52.110;5.548;2023-06-22T08:37:10;26.90;52.70
24744;DHT22;12844;52.110;5.548;2023-06-22T08:39:36;26.90;52.70
24744;DHT22;12844;52.110;5.548;2023-06-22T08:42:02;26.90;52.70
24744;DHT22;12844;52.110;5.548;2023-06-22T08:44:28;26.90;52.70
24744;DHT22;12844;52.110;5.548;2023-06-22T08:46:53;27.00;52.70
24744;DHT22;12844;52.110;5.548;2023-06-22T08:49:19;27.00;52.70
24744;DHT22;12844;52.110;5.548;2023-06-22T08:51:44;27.00;52.70
24744;DHT22;12844;52.110;5.548;2023-06-22T08:54:11;27.00;52.60
24744;DHT22;12844;52.110;5.548;2023-06-22T08:56:36;27.00;52.70
24744;DHT22;12844;52.110;5.548;2023-06-22T08:59:02;27.00;52.60
24744;DHT22;12844;52.110;5.548;2023-06-22T09:01:27;27.00;52.60
24744;DHT22;12844;52.110;5.548;2023-06-22T09:03:53;27.00;52.60
24744;DHT22;12844;52.110;5.548;2023-06-22T09:06:23;27.00;52.60
24744;DHT22;12844;52.110;5.548;2023-06-22T09:08:49;27.00;52.60
24744;DHT22;12844;52.110;5.548;2023-06-22T09:11:15;27.00;52.60
24744;DHT22;12844;52.110;5.548;2023-06-22T09:13:40;27.00;52.60
24744;DHT22;12844;52.110;5.548;2023-06-22T09:16:06;27.00;52.60
24744;DHT22;12844;52.110;5.548;2023-06-22T09:18:33;27.00;52.60
24744;DHT22;12844;52.110;5.548;2023-06-22T09:20:59;27.00;52.60
24744;DHT22;12844;52.110;5.548;2023-06-22T09:23:24;27.00;52.60
24744;DHT22;12844;52.110;5.548;2023-06-22T09:25:50;27.10;52.70
24744;DHT22;12844;52.110;5.548;2023-06-22T09:28:15;27.00;52.60
24744;DHT22;12844;52.110;5.548;2023-06-22T09:30:42;27.00;52.60
24744;DHT22;12844;52.110;5.548;2023-06-22T09:33:08;27.00;52.60
24744;DHT22;12844;52.110;5.548;2023-06-22T09:35:33;27.00;52.60
24744;DHT22;12844;52.110;5.548;2023-06-22T09:37:59;27.00;52.60
24744;DHT22;12844;52.110;5.548;2023-06-22T09:40:25;27.00;52.60
24744;DHT22;12844;52.110;5.548;2023-06-22T09:42:50;27.00;52.60
24744;DHT22;12844;52.110;5.548;2023-06-22T09:45:16;27.00;52.70
24744;DHT22;12844;52.110;5.548;2023-06-22T09:47:41;27.00;52.70
24744;DHT22;12844;52.110;5.548;2023-06-22T09:50:08;27.00;52.70
24744;DHT22;12844;52.110;5.548;2023-06-22T09:52:34;27.00;52.70
24744;DHT22;12844;52.110;5.548;2023-06-22T09:54:59;27.00;52.80
24744;DHT22;12844;52.110;5.548;2023-06-22T09:57:25;26.90;52.70
24744;DHT22;12844;52.110;5.548;2023-06-22T09:59:50;27.00;52.80
24744;DHT22;12844;52.110;5.548;2023-06-22T10:02:16;27.00;52.80
24744;DHT22;12844;52.110;5.548;2023-06-22T10:04:42;27.00;52.80
24744;DHT22;12844;52.110;5.548;2023-06-22T10:07:08;26.90;52.70
24744;DHT22;12844;52.110;5.548;2023-06-22T10:09:33;26.90;52.80
24744;DHT22;12844;52.110;5.548;2023-06-22T10:11:59;26.90;52.70
24744;DHT22;12844;52.110;5.548;2023-06-22T10:14:24;26.90;52.80
24744;DHT22;12844;52.110;5.548;2023-06-22T10:16:52;26.90;52.80
24744;DHT22;12844;52.110;5.548;2023-06-22T10:19:17;26.90;52.80
24744;DHT22;12844;52.110;5.548;2023-06-22T10:21:43;26.90;52.80
24744;DHT22;12844;52.110;5.548;2023-06-22T10:24:08;26.80;52.80
24744;DHT22;12844;52.110;5.548;2023-06-22T10:26:35;26.80;52.80
24744;DHT22;12844;52.110;5.548;2023-06-22T10:29:02;26.80;52.90
24744;DHT22;12844;52.110;5.548;2023-06-22T10:31:27;26.80;52.80
24744;DHT22;12844;52.110;5.548;2023-06-22T10:33:54;26.80;52.90
24744;DHT22;12844;52.110;5.548;2023-06-22T10:36:21;26.80;52.90
24744;DHT22;12844;52.110;5.548;2023-06-22T10:38:47;26.80;52.90
24744;DHT22;12844;52.110;5.548;2023-06-22T10:41:13;26.80;52.90
24744;DHT22;12844;52.110;5.548;2023-06-22T10:43:39;26.80;52.90
24744;DHT22;12844;52.110;5.548;2023-06-22T10:46:06;26.80;52.90
24744;DHT22;12844;52.110;5.548;2023-06-22T10:48:32;26.80;52.90
24744;DHT22;12844;52.110;5.548;2023-06-22T10:50:57;26.70;52.80
24744;DHT22;12844;52.110;5.548;2023-06-22T10:53:23;26.80;52.90
24744;DHT22;12844;52.110;5.548;2023-06-22T10:55:48;26.80;52.90
24744;DHT22;12844;52.110;5.548;2023-06-22T10:58:14;26.80;52.90
24744;DHT22;12844;52.110;5.548;2023-06-22T11:00:39;26.70;52.90
24744;DHT22;12844;52.110;5.548;2023-06-22T11:03:05;26.80;52.90
24744;DHT22;12844;52.110;5.548;2023-06-22T11:05:31;26.80;52.90
24744;DHT22;12844;52.110;5.548;2023-06-22T11:07:57;26.80;52.90
24744;DHT22;12844;52.110;5.548;2023-06-22T11:10:22;26.80;52.90
24744;DHT22;12844;52.110;5.548;2023-06-22T11:12:48;26.70;52.90
24744;DHT22;12844;52.110;5.548;2023-06-22T11:15:14;26.80;52.90
24744;DHT22;12844;52.110;5.548;2023-06-22T11:17:39;26.70;52.90
24744;DHT22;12844;52.110;5.548;2023-06-22T11:20:05;26.70;52.90
24744;DHT22;12844;52.110;5.548;2023-06-22T11:22:39;26.80;52.90
24744;DHT22;12844;52.110;5.548;2023-06-22T11:25:05;26.80;52.90
24744;DHT22;12844;52.110;5.548;2023-06-22T11:27:30;26.70;52.90
24744;DHT22;12844;52.110;5.548;2023-06-22T11:29:56;26.80;52.90
24744;DHT22;12844;52.110;5.548;2023-06-22T11:32:22;26.70;52.90
24744;DHT22;12844;52.110;5.548;2023-06-22T11:34:48;26.80;52.90
24744;DHT22;12844;52.110;5.548;2023-06-22T11:37:13;26.80;52.90
24744;DHT22;12844;52.110;5.548;2023-06-22T11:39:39;26.80;53.50
24744;DHT22;12844;52.110;5.548;2023-06-22T11:42:04;26.80;52.90
24744;DHT22;12844;52.110;5.548;2023-06-22T11:44:30;26.80;52.90
24744;DHT22;12844;52.110;5.548;2023-06-22T11:46:55;26.80;52.90
24744;DHT22;12844;52.110;5.548;2023-06-22T11:49:21;26.70;52.90
24744;DHT22;12844;52.110;5.548;2023-06-22T11:51:46;26.80;52.90
24744;DHT22;12844;52.110;5.548;2023-06-22T11:54:12;26.70;52.90
24744;DHT22;12844;52.110;5.548;2023-06-22T11:56:37;26.80;52.90
24744;DHT22;12844;52.110;5.548;2023-06-22T11:59:03;26.80;52.80
24744;DHT22;12844;52.110;5.548;2023-06-22T12:01:28;26.90;52.70
24744;DHT22;12844;52.110;5.548;2023-06-22T12:03:54;26.90;52.70
24744;DHT22;12844;52.110;5.548;2023-06-22T12:06:20;26.90;52.70
24744;DHT22;12844;52.110;5.548;2023-06-22T12:08:45;26.90;52.60
24744;DHT22;12844;52.110;5.548;2023-06-22T12:11:11;26.90;52.50
24744;DHT22;12844;52.110;5.548;2023-06-22T12:13:36;27.00;52.50
24744;DHT22;12844;52.110;5.548;2023-06-22T12:16:02;26.90;52.50
24744;DHT22;12844;52.110;5.548;2023-06-22T12:18:27;26.90;52.40
24744;DHT22;12844;52.110;5.548;2023-06-22T12:20:53;26.90;52.40
24744;DHT22;12844;52.110;5.548;2023-06-22T12:23:18;27.00;52.50
24744;DHT22;12844;52.110;5.548;2023-06-22T12:25:45;27.00;52.70
24744;DHT22;12844;52.110;5.548;2023-06-22T12:28:11;26.90;52.70
24744;DHT22;12844;52.110;5.548;2023-06-22T12:30:36;26.90;52.80
24744;DHT22;12844;52.110;5.548;2023-06-22T12:33:02;26.90;52.90
24744;DHT22;12844;52.110;5.548;2023-06-22T12:35:27;26.90;53.00
24744;DHT22;12844;52.110;5.548;2023-06-22T12:37:53;26.90;53.00
24744;DHT22;12844;52.110;5.548;2023-06-22T12:40:18;26.90;53.00
24744;DHT22;12844;52.110;5.548;2023-06-22T12:42:45;26.90;53.00
24744;DHT22;12844;52.110;5.548;2023-06-22T12:45:10;26.90;53.00
24744;DHT22;12844;52.110;5.548;2023-06-22T12:47:36;26.90;53.00
24744;DHT22;12844;52.110;5.548;2023-06-22T12:50:02;26.90;53.10
24744;DHT22;12844;52.110;5.548;2023-06-22T12:52:30;26.90;53.10
24744;DHT22;12844;52.110;5.548;2023-06-22T12:54:56;26.90;53.10
24744;DHT22;12844;52.110;5.548;2023-06-22T12:57:22;26.90;53.20
24744;DHT22;12844;52.110;5.548;2023-06-22T12:59:48;26.90;53.10
24744;DHT22;12844;52.110;5.548;2023-06-22T13:02:14;26.90;53.10
24744;DHT22;12844;52.110;5.548;2023-06-22T13:04:40;26.90;53.30
24744;DHT22;12844;52.110;5.548;2023-06-22T13:07:05;27.00;53.30
24744;DHT22;12844;52.110;5.548;2023-06-22T13:09:31;27.00;53.20
24744;DHT22;12844;52.110;5.548;2023-06-22T13:11:56;27.00;53.20
24744;DHT22;12844;52.110;5.548;2023-06-22T13:14:22;27.00;53.20
24744;DHT22;12844;52.110;5.548;2023-06-22T13:16:47;27.00;53.20
24744;DHT22;12844;52.110;5.548;2023-06-22T13:19:13;27.00;53.10
24744;DHT22;12844;52.110;5.548;2023-06-22T13:21:38;27.00;53.30
24744;DHT22;12844;52.110;5.548;2023-06-22T13:24:04;27.00;53.40
24744;DHT22;12844;52.110;5.548;2023-06-22T13:26:31;27.00;53.40
24744;DHT22;12844;52.110;5.548;2023-06-22T13:28:57;27.00;53.40
24744;DHT22;12844;52.110;5.548;2023-06-22T13:31:22;27.00;53.50
24744;DHT22;12844;52.110;5.548;2023-06-22T13:33:48;27.00;53.50
24744;DHT22;12844;52.110;5.548;2023-06-22T13:36:14;27.00;53.40
24744;DHT22;12844;52.110;5.548;2023-06-22T13:38:39;27.00;53.40
24744;DHT22;12844;52.110;5.548;2023-06-22T13:41:05;27.00;53.30
24744;DHT22;12844;52.110;5.548;2023-06-22T13:43:31;27.00;53.30
24744;DHT22;12844;52.110;5.548;2023-06-22T13:45:57;27.00;53.20
24744;DHT22;12844;52.110;5.548;2023-06-22T13:48:23;27.00;53.10
24744;DHT22;12844;52.110;5.548;2023-06-22T13:50:51;27.00;53.10
24744;DHT22;12844;52.110;5.548;2023-06-22T13:53:16;27.00;53.30
24744;DHT22;12844;52.110;5.548;2023-06-22T13:55:42;26.90;53.30
24744;DHT22;12844;52.110;5.548;2023-06-22T13:58:08;26.90;53.30
24744;DHT22;12844;52.110;5.548;2023-06-22T14:00:33;26.90;53.40
24744;DHT22;12844;52.110;5.548;2023-06-22T14:02:59;26.90;53.50
24744;DHT22;12844;52.110;5.548;2023-06-22T14:05:24;26.90;53.40
24744;DHT22;12844;52.110;5.548;2023-06-22T14:07:50;26.90;53.50
24744;DHT22;12844;52.110;5.548;2023-06-22T14:10:15;26.90;53.50
24744;DHT22;12844;52.110;5.548;2023-06-22T14:12:41;26.90;53.50
24744;DHT22;12844;52.110;5.548;2023-06-22T14:15:06;26.90;53.50
24744;DHT22;12844;52.110;5.548;2023-06-22T14:17:32;26.90;53.60
24744;DHT22;12844;52.110;5.548;2023-06-22T14:19:58;26.90;53.60
24744;DHT22;12844;52.110;5.548;2023-06-22T14:22:23;26.90;53.60
24744;DHT22;12844;52.110;5.548;2023-06-22T14:24:49;26.90;53.70
24744;DHT22;12844;52.110;5.548;2023-06-22T14:27:15;26.90;53.70
24744;DHT22;12844;52.110;5.548;2023-06-22T14:29:41;26.90;53.60
24744;DHT22;12844;52.110;5.548;2023-06-22T14:32:07;26.90;53.60
24744;DHT22;12844;52.110;5.548;2023-06-22T14:34:34;26.90;54.20
24744;DHT22;12844;52.110;5.548;2023-06-22T14:37:02;26.90;53.70
24744;DHT22;12844;52.110;5.548;2023-06-22T14:39:27;26.90;53.70
24744;DHT22;12844;52.110;5.548;2023-06-22T14:41:53;26.90;53.70
24744;DHT22;12844;52.110;5.548;2023-06-22T14:44:18;26.80;53.60
24744;DHT22;12844;52.110;5.548;2023-06-22T14:46:44;26.90;53.70
24744;DHT22;12844;52.110;5.548;2023-06-22T14:49:09;26.80;53.70
24744;DHT22;12844;52.110;5.548;2023-06-22T14:51:35;26.80;53.70
24744;DHT22;12844;52.110;5.548;2023-06-22T14:54:00;26.80;53.70
24744;DHT22;12844;52.110;5.548;2023-06-22T14:56:26;26.80;53.80
24744;DHT22;12844;52.110;5.548;2023-06-22T14:58:51;26.80;53.80
24744;DHT22;12844;52.110;5.548;2023-06-22T15:01:17;26.80;53.80
24744;DHT22;12844;52.110;5.548;2023-06-22T15:03:43;26.80;53.80
24744;DHT22;12844;52.110;5.548;2023-06-22T15:06:09;26.80;53.80
24744;DHT22;12844;52.110;5.548;2023-06-22T15:08:37;26.80;53.80
24744;DHT22;12844;52.110;5.548;2023-06-22T15:11:03;26.80;53.90
24744;DHT22;12844;52.110;5.548;2023-06-22T15:13:31;26.70;53.80
24744;DHT22;12844;52.110;5.548;2023-06-22T15:16:00;26.80;53.80
24744;DHT22;12844;52.110;5.548;2023-06-22T15:18:27;26.70;53.70
24744;DHT22;12844;52.110;5.548;2023-06-22T15:20:53;26.70;53.70
24744;DHT22;12844;52.110;5.548;2023-06-22T15:23:18;26.70;53.80
24744;DHT22;12844;52.110;5.548;2023-06-22T15:25:44;26.70;53.80
24744;DHT22;12844;52.110;5.548;2023-06-22T15:28:11;26.70;53.80
24744;DHT22;12844;52.110;5.548;2023-06-22T15:30:36;26.70;53.80
24744;DHT22;12844;52.110;5.548;2023-06-22T15:33:02;26.70;53.80